Little Falls, West Virginia
Current Conditions -  °F | °C
As of 9:53 PM on Wednesday 22 Oct 2014 (Local Time) from KMGW Reporting Station
Overcast Overcast  
Wind Chill: 50°   Ceiling: 1900
Heat Index: 50°   Visibility: 10mi
Dew Point: 40°   Wind: 8mph
Humidity: 68%   Direction: 340°NNW
Pressure: 30.18"   Gusts: NA
Location:  39.5891°N, 79.8946°W
Report Text: KMGW 230153Z 34007KT 10SM OVC019 10/04 A3018 RMK AO2 SLP223 T01000044
Loading
Personal Weather Stations






























Interactive Weather Map
Tropical Storm Tracking
New forecast layout! Learn more

10-Day Weather Forecast

Advertisements
Track Severe Weather on mobile